sensor_id;sensor_type;location;lat;lon;timestamp;P1;durP1;ratioP1;P2;durP2;ratioP2
27265;SDS011;14766;51.380;13.762;2024-03-22T02:25:07;16.10;;;7.70;;
27265;SDS011;14766;51.380;13.762;2024-03-22T02:27:34;14.52;;;8.00;;
27265;SDS011;14766;51.380;13.762;2024-03-22T02:30:03;12.95;;;8.25;;
27265;SDS011;14766;51.380;13.762;2024-03-22T02:32:30;14.40;;;8.80;;
27265;SDS011;14766;51.380;13.762;2024-03-22T02:34:56;13.27;;;8.20;;
27265;SDS011;14766;51.380;13.762;2024-03-22T02:37:22;14.23;;;7.88;;
27265;SDS011;14766;51.380;13.762;2024-03-22T02:39:48;12.30;;;7.75;;
27265;SDS011;14766;51.380;13.762;2024-03-22T02:42:14;13.10;;;7.90;;
27265;SDS011;14766;51.380;13.762;2024-03-22T02:44:40;14.77;;;8.52;;
27265;SDS011;14766;51.380;13.762;2024-03-22T02:47:09;12.70;;;8.18;;
27265;SDS011;14766;51.380;13.762;2024-03-22T02:49:35;14.85;;;9.07;;
27265;SDS011;14766;51.380;13.762;2024-03-22T02:52:02;16.13;;;9.40;;
27265;SDS011;14766;51.380;13.762;2024-03-22T02:54:29;12.35;;;7.45;;
27265;SDS011;14766;51.380;13.762;2024-03-22T02:56:58;11.73;;;7.55;;
27265;SDS011;14766;51.380;13.762;2024-03-22T02:59:27;12.25;;;8.10;;
27265;SDS011;14766;51.380;13.762;2024-03-22T03:01:53;13.52;;;8.30;;
27265;SDS011;14766;51.380;13.762;2024-03-22T03:04:19;12.35;;;7.93;;
27265;SDS011;14766;51.380;13.762;2024-03-22T03:06:45;11.77;;;6.78;;
27265;SDS011;14766;51.380;13.762;2024-03-22T03:09:12;14.10;;;8.00;;
27265;SDS011;14766;51.380;13.762;2024-03-22T03:11:39;12.80;;;8.02;;
27265;SDS011;14766;51.380;13.762;2024-03-22T03:14:05;12.13;;;8.00;;
27265;SDS011;14766;51.380;13.762;2024-03-22T03:16:33;12.90;;;7.63;;
27265;SDS011;14766;51.380;13.762;2024-03-22T03:18:59;13.70;;;8.02;;
27265;SDS011;14766;51.380;13.762;2024-03-22T03:21:25;12.05;;;7.45;;
27265;SDS011;14766;51.380;13.762;2024-03-22T03:23:51;12.43;;;7.65;;
27265;SDS011;14766;51.380;13.762;2024-03-22T03:26:17;13.95;;;8.20;;
27265;SDS011;14766;51.380;13.762;2024-03-22T03:28:43;13.38;;;7.72;;
27265;SDS011;14766;51.380;13.762;2024-03-22T03:31:09;14.25;;;8.77;;
27265;SDS011;14766;51.380;13.762;2024-03-22T03:33:35;13.20;;;8.55;;
27265;SDS011;14766;51.380;13.762;2024-03-22T03:36:01;12.98;;;8.73;;
27265;SDS011;14766;51.380;13.762;2024-03-22T03:38:28;12.73;;;8.00;;
27265;SDS011;14766;51.380;13.762;2024-03-22T03:40:54;11.75;;;7.28;;
27265;SDS011;14766;51.380;13.762;2024-03-22T03:43:20;11.60;;;7.50;;
27265;SDS011;14766;51.380;13.762;2024-03-22T03:45:46;12.63;;;8.18;;
27265;SDS011;14766;51.380;13.762;2024-03-22T03:48:12;14.55;;;8.10;;
27265;SDS011;14766;51.380;13.762;2024-03-22T03:50:38;13.38;;;8.23;;
27265;SDS011;14766;51.380;13.762;2024-03-22T03:53:05;13.55;;;7.93;;
27265;SDS011;14766;51.380;13.762;2024-03-22T03:55:31;12.93;;;7.38;;
27265;SDS011;14766;51.380;13.762;2024-03-22T03:57:59;12.27;;;7.70;;
27265;SDS011;14766;51.380;13.762;2024-03-22T04:00:25;12.60;;;7.78;;
27265;SDS011;14766;51.380;13.762;2024-03-22T04:02:51;13.02;;;7.88;;
27265;SDS011;14766;51.380;13.762;2024-03-22T04:05:17;13.98;;;8.52;;
27265;SDS011;14766;51.380;13.762;2024-03-22T04:07:48;13.85;;;7.97;;
27265;SDS011;14766;51.380;13.762;2024-03-22T04:10:14;16.83;;;8.50;;
27265;SDS011;14766;51.380;13.762;2024-03-22T04:12:40;15.30;;;8.57;;
27265;SDS011;14766;51.380;13.762;2024-03-22T04:15:06;14.50;;;9.00;;
27265;SDS011;14766;51.380;13.762;2024-03-22T04:17:34;15.40;;;9.35;;
27265;SDS011;14766;51.380;13.762;2024-03-22T04:20:00;16.30;;;8.95;;
27265;SDS011;14766;51.380;13.762;2024-03-22T04:22:26;14.63;;;8.60;;
27265;SDS011;14766;51.380;13.762;2024-03-22T04:24:52;14.45;;;8.82;;
27265;SDS011;14766;51.380;13.762;2024-03-22T04:27:18;17.27;;;8.88;;
27265;SDS011;14766;51.380;13.762;2024-03-22T04:29:47;17.33;;;9.82;;
27265;SDS011;14766;51.380;13.762;2024-03-22T04:32:13;15.73;;;9.35;;
27265;SDS011;14766;51.380;13.762;2024-03-22T04:34:42;14.98;;;9.10;;
27265;SDS011;14766;51.380;13.762;2024-03-22T04:37:09;14.98;;;9.30;;
27265;SDS011;14766;51.380;13.762;2024-03-22T04:39:37;15.45;;;9.07;;
27265;SDS011;14766;51.380;13.762;2024-03-22T04:42:04;14.77;;;9.32;;
27265;SDS011;14766;51.380;13.762;2024-03-22T04:44:30;14.07;;;8.07;;
27265;SDS011;14766;51.380;13.762;2024-03-22T04:46:56;15.52;;;9.23;;
27265;SDS011;14766;51.380;13.762;2024-03-22T04:49:22;16.77;;;9.27;;
27265;SDS011;14766;51.380;13.762;2024-03-22T04:51:48;14.73;;;8.77;;
27265;SDS011;14766;51.380;13.762;2024-03-22T04:54:14;15.80;;;10.10;;
27265;SDS011;14766;51.380;13.762;2024-03-22T04:56:40;15.55;;;8.90;;
27265;SDS011;14766;51.380;13.762;2024-03-22T04:59:07;16.42;;;9.90;;
27265;SDS011;14766;51.380;13.762;2024-03-22T05:01:33;18.60;;;10.68;;
27265;SDS011;14766;51.380;13.762;2024-03-22T05:03:59;17.70;;;10.02;;
27265;SDS011;14766;51.380;13.762;2024-03-22T05:06:25;15.40;;;10.02;;
27265;SDS011;14766;51.380;13.762;2024-03-22T05:08:51;17.98;;;10.57;;
27265;SDS011;14766;51.380;13.762;2024-03-22T05:11:17;19.10;;;10.70;;
27265;SDS011;14766;51.380;13.762;2024-03-22T05:13:43;17.67;;;10.70;;
27265;SDS011;14766;51.380;13.762;2024-03-22T05:16:09;18.27;;;11.25;;
27265;SDS011;14766;51.380;13.762;2024-03-22T05:18:36;18.23;;;10.73;;
27265;SDS011;14766;51.380;13.762;2024-03-22T05:21:02;17.27;;;10.90;;
27265;SDS011;14766;51.380;13.762;2024-03-22T05:23:28;19.25;;;11.57;;
27265;SDS011;14766;51.380;13.762;2024-03-22T05:25:54;16.05;;;10.70;;
27265;SDS011;14766;51.380;13.762;2024-03-22T05:28:20;22.13;;;11.32;;
27265;SDS011;14766;51.380;13.762;2024-03-22T05:30:47;18.27;;;10.52;;
27265;SDS011;14766;51.380;13.762;2024-03-22T05:33:13;20.90;;;11.20;;
27265;SDS011;14766;51.380;13.762;2024-03-22T05:35:39;16.67;;;9.68;;
27265;SDS011;14766;51.380;13.762;2024-03-22T05:38:06;20.60;;;11.55;;
27265;SDS011;14766;51.380;13.762;2024-03-22T05:40:32;17.83;;;10.52;;
27265;SDS011;14766;51.380;13.762;2024-03-22T05:43:01;17.33;;;10.32;;
27265;SDS011;14766;51.380;13.762;2024-03-22T05:45:27;16.33;;;10.13;;
27265;SDS011;14766;51.380;13.762;2024-03-22T05:47:53;17.77;;;9.70;;
27265;SDS011;14766;51.380;13.762;2024-03-22T05:50:19;17.52;;;10.40;;
27265;SDS011;14766;51.380;13.762;2024-03-22T05:52:46;17.88;;;10.30;;
27265;SDS011;14766;51.380;13.762;2024-03-22T05:55:12;18.98;;;10.55;;
27265;SDS011;14766;51.380;13.762;2024-03-22T05:57:38;16.33;;;10.18;;
27265;SDS011;14766;51.380;13.762;2024-03-22T06:00:05;16.77;;;11.02;;
27265;SDS011;14766;51.380;13.762;2024-03-22T06:02:33;17.58;;;10.38;;
27265;SDS011;14766;51.380;13.762;2024-03-22T06:04:59;17.02;;;10.60;;
27265;SDS011;14766;51.380;13.762;2024-03-22T06:07:26;19.02;;;10.77;;
27265;SDS011;14766;51.380;13.762;2024-03-22T06:09:54;16.38;;;10.02;;
27265;SDS011;14766;51.380;13.762;2024-03-22T06:12:20;17.33;;;10.02;;
27265;SDS011;14766;51.380;13.762;2024-03-22T06:14:47;17.75;;;10.93;;
27265;SDS011;14766;51.380;13.762;2024-03-22T06:17:14;23.08;;;13.07;;
27265;SDS011;14766;51.380;13.762;2024-03-22T06:19:41;18.90;;;10.93;;
27265;SDS011;14766;51.380;13.762;2024-03-22T06:22:07;18.25;;;11.68;;
27265;SDS011;14766;51.380;13.762;2024-03-22T06:24:33;19.92;;;10.95;;
27265;SDS011;14766;51.380;13.762;2024-03-22T06:26:59;17.33;;;10.80;;
27265;SDS011;14766;51.380;13.762;2024-03-22T06:29:26;17.25;;;9.82;;
27265;SDS011;14766;51.380;13.762;2024-03-22T06:31:54;15.52;;;10.02;;
27265;SDS011;14766;51.380;13.762;2024-03-22T06:34:28;15.77;;;9.60;;
27265;SDS011;14766;51.380;13.762;2024-03-22T06:36:55;15.73;;;9.32;;
27265;SDS011;14766;51.380;13.762;2024-03-22T06:39:21;15.60;;;10.63;;
27265;SDS011;14766;51.380;13.762;2024-03-22T06:41:47;14.60;;;9.75;;
27265;SDS011;14766;51.380;13.762;2024-03-22T06:44:14;16.05;;;8.70;;
27265;SDS011;14766;51.380;13.762;2024-03-22T06:46:40;12.60;;;8.25;;
27265;SDS011;14766;51.380;13.762;2024-03-22T06:49:06;16.42;;;8.73;;
27265;SDS011;14766;51.380;13.762;2024-03-22T06:51:33;12.38;;;7.75;;
27265;SDS011;14766;51.380;13.762;2024-03-22T06:53:59;10.65;;;7.20;;
27265;SDS011;14766;51.380;13.762;2024-03-22T06:56:25;13.00;;;7.30;;
27265;SDS011;14766;51.380;13.762;2024-03-22T06:58:51;10.68;;;7.13;;
27265;SDS011;14766;51.380;13.762;2024-03-22T07:01:17;12.43;;;6.75;;
27265;SDS011;14766;51.380;13.762;2024-03-22T07:03:43;8.80;;;5.72;;
27265;SDS011;14766;51.380;13.762;2024-03-22T07:06:11;10.50;;;6.45;;
27265;SDS011;14766;51.380;13.762;2024-03-22T07:08:37;9.48;;;6.40;;
27265;SDS011;14766;51.380;13.762;2024-03-22T07:11:11;10.52;;;6.53;;
27265;SDS011;14766;51.380;13.762;2024-03-22T07:13:38;8.55;;;6.20;;
27265;SDS011;14766;51.380;13.762;2024-03-22T07:16:04;8.57;;;5.68;;
27265;SDS011;14766;51.380;13.762;2024-03-22T07:18:30;10.18;;;5.93;;
27265;SDS011;14766;51.380;13.762;2024-03-22T07:20:58;8.27;;;5.90;;
27265;SDS011;14766;51.380;13.762;2024-03-22T07:23:27;8.65;;;5.78;;
27265;SDS011;14766;51.380;13.762;2024-03-22T07:25:53;10.75;;;6.55;;
27265;SDS011;14766;51.380;13.762;2024-03-22T07:28:20;10.85;;;6.35;;
27265;SDS011;14766;51.380;13.762;2024-03-22T07:30:47;9.98;;;5.57;;
27265;SDS011;14766;51.380;13.762;2024-03-22T07:33:14;9.10;;;5.65;;
27265;SDS011;14766;51.380;13.762;2024-03-22T07:35:42;11.43;;;6.32;;
27265;SDS011;14766;51.380;13.762;2024-03-22T07:38:08;8.55;;;6.47;;
27265;SDS011;14766;51.380;13.762;2024-03-22T07:40:34;10.63;;;6.60;;
27265;SDS011;14766;51.380;13.762;2024-03-22T07:43:00;10.25;;;6.40;;
27265;SDS011;14766;51.380;13.762;2024-03-22T07:45:32;9.70;;;5.75;;
27265;SDS011;14766;51.380;13.762;2024-03-22T07:47:59;9.27;;;6.53;;
27265;SDS011;14766;51.380;13.762;2024-03-22T07:50:25;8.23;;;6.10;;
27265;SDS011;14766;51.380;13.762;2024-03-22T07:52:51;8.55;;;5.57;;
27265;SDS011;14766;51.380;13.762;2024-03-22T07:55:18;7.88;;;5.55;;
27265;SDS011;14766;51.380;13.762;2024-03-22T07:57:44;8.95;;;6.28;;
27265;SDS011;14766;51.380;13.762;2024-03-22T08:00:10;11.77;;;7.20;;
27265;SDS011;14766;51.380;13.762;2024-03-22T08:02:39;11.23;;;7.38;;
27265;SDS011;14766;51.380;13.762;2024-03-22T08:05:07;11.23;;;7.00;;
27265;SDS011;14766;51.380;13.762;2024-03-22T08:07:33;12.80;;;6.78;;
27265;SDS011;14766;51.380;13.762;2024-03-22T08:09:59;11.95;;;7.82;;
27265;SDS011;14766;51.380;13.762;2024-03-22T08:12:28;11.95;;;6.88;;
27265;SDS011;14766;51.380;13.762;2024-03-22T08:14:54;11.90;;;8.02;;
27265;SDS011;14766;51.380;13.762;2024-03-22T08:17:21;12.82;;;8.15;;
27265;SDS011;14766;51.380;13.762;2024-03-22T08:19:48;13.77;;;8.65;;
27265;SDS011;14766;51.380;13.762;2024-03-22T08:22:14;13.85;;;8.88;;
27265;SDS011;14766;51.380;13.762;2024-03-22T08:24:40;13.00;;;8.63;;
27265;SDS011;14766;51.380;13.762;2024-03-22T08:27:06;13.10;;;9.00;;
27265;SDS011;14766;51.380;13.762;2024-03-22T08:29:32;13.90;;;9.20;;
27265;SDS011;14766;51.380;13.762;2024-03-22T08:31:58;17.15;;;10.07;;
27265;SDS011;14766;51.380;13.762;2024-03-22T08:34:24;15.70;;;9.88;;
27265;SDS011;14766;51.380;13.762;2024-03-22T08:36:50;16.23;;;10.63;;
27265;SDS011;14766;51.380;13.762;2024-03-22T08:39:17;15.52;;;10.13;;
27265;SDS011;14766;51.380;13.762;2024-03-22T08:41:43;16.05;;;8.88;;
27265;SDS011;14766;51.380;13.762;2024-03-22T08:44:10;18.08;;;10.98;;
27265;SDS011;14766;51.380;13.762;2024-03-22T08:46:36;14.82;;;9.88;;
27265;SDS011;14766;51.380;13.762;2024-03-22T08:49:02;16.63;;;11.00;;
27265;SDS011;14766;51.380;13.762;2024-03-22T08:51:28;18.35;;;12.02;;
27265;SDS011;14766;51.380;13.762;2024-03-22T08:53:54;18.13;;;11.45;;
27265;SDS011;14766;51.380;13.762;2024-03-22T08:56:21;21.33;;;12.15;;
27265;SDS011;14766;51.380;13.762;2024-03-22T08:58:48;18.60;;;11.68;;
27265;SDS011;14766;51.380;13.762;2024-03-22T09:01:16;18.88;;;12.15;;
27265;SDS011;14766;51.380;13.762;2024-03-22T09:03:42;20.05;;;11.05;;
27265;SDS011;14766;51.380;13.762;2024-03-22T09:06:12;19.50;;;10.77;;
27265;SDS011;14766;51.380;13.762;2024-03-22T09:08:39;19.35;;;12.10;;
27265;SDS011;14766;51.380;13.762;2024-03-22T09:11:05;15.85;;;10.43;;
27265;SDS011;14766;51.380;13.762;2024-03-22T09:13:32;16.00;;;10.20;;
27265;SDS011;14766;51.380;13.762;2024-03-22T09:16:01;15.60;;;10.30;;
27265;SDS011;14766;51.380;13.762;2024-03-22T09:18:28;19.45;;;11.55;;
27265;SDS011;14766;51.380;13.762;2024-03-22T09:20:54;18.02;;;11.02;;
27265;SDS011;14766;51.380;13.762;2024-03-22T09:23:22;20.05;;;11.00;;
27265;SDS011;14766;51.380;13.762;2024-03-22T09:25:48;16.52;;;9.75;;
27265;SDS011;14766;51.380;13.762;2024-03-22T09:28:14;17.75;;;11.35;;
27265;SDS011;14766;51.380;13.762;2024-03-22T09:30:41;16.80;;;11.23;;
27265;SDS011;14766;51.380;13.762;2024-03-22T09:33:08;17.35;;;11.43;;
27265;SDS011;14766;51.380;13.762;2024-03-22T09:35:34;17.77;;;10.88;;
27265;SDS011;14766;51.380;13.762;2024-03-22T09:38:01;18.27;;;11.52;;
27265;SDS011;14766;51.380;13.762;2024-03-22T09:40:28;17.10;;;10.55;;
27265;SDS011;14766;51.380;13.762;2024-03-22T09:42:54;15.98;;;10.15;;
27265;SDS011;14766;51.380;13.762;2024-03-22T09:45:29;14.65;;;9.88;;
27265;SDS011;14766;51.380;13.762;2024-03-22T09:47:57;17.38;;;10.50;;
27265;SDS011;14766;51.380;13.762;2024-03-22T09:50:25;16.23;;;9.75;;
27265;SDS011;14766;51.380;13.762;2024-03-22T09:52:52;18.77;;;10.60;;
27265;SDS011;14766;51.380;13.762;2024-03-22T09:55:22;13.98;;;8.73;;
27265;SDS011;14766;51.380;13.762;2024-03-22T09:57:49;15.70;;;9.57;;
27265;SDS011;14766;51.380;13.762;2024-03-22T10:00:17;12.85;;;8.57;;
27265;SDS011;14766;51.380;13.762;2024-03-22T10:02:46;14.30;;;8.60;;
27265;SDS011;14766;51.380;13.762;2024-03-22T10:05:13;13.40;;;8.93;;
27265;SDS011;14766;51.380;13.762;2024-03-22T10:07:40;13.65;;;8.95;;
27265;SDS011;14766;51.380;13.762;2024-03-22T10:10:07;12.40;;;8.13;;
27265;SDS011;14766;51.380;13.762;2024-03-22T10:12:33;16.02;;;9.65;;
27265;SDS011;14766;51.380;13.762;2024-03-22T10:14:59;13.82;;;8.90;;
27265;SDS011;14766;51.380;13.762;2024-03-22T10:17:26;12.60;;;8.45;;
27265;SDS011;14766;51.380;13.762;2024-03-22T10:19:54;13.93;;;8.88;;
27265;SDS011;14766;51.380;13.762;2024-03-22T10:22:20;13.02;;;8.48;;
27265;SDS011;14766;51.380;13.762;2024-03-22T10:24:46;10.45;;;7.25;;
27265;SDS011;14766;51.380;13.762;2024-03-22T10:27:12;12.85;;;7.68;;
27265;SDS011;14766;51.380;13.762;2024-03-22T10:29:39;11.02;;;7.63;;
27265;SDS011;14766;51.380;13.762;2024-03-22T10:32:05;11.95;;;7.63;;
27265;SDS011;14766;51.380;13.762;2024-03-22T10:34:33;12.23;;;7.43;;
27265;SDS011;14766;51.380;13.762;2024-03-22T10:37:00;9.70;;;7.13;;
27265;SDS011;14766;51.380;13.762;2024-03-22T10:39:27;14.70;;;8.27;;
27265;SDS011;14766;51.380;13.762;2024-03-22T10:41:56;13.45;;;8.50;;
27265;SDS011;14766;51.380;13.762;2024-03-22T10:44:23;12.10;;;8.30;;
27265;SDS011;14766;51.380;13.762;2024-03-22T10:46:49;15.40;;;8.52;;
27265;SDS011;14766;51.380;13.762;2024-03-22T10:49:18;13.68;;;8.10;;
27265;SDS011;14766;51.380;13.762;2024-03-22T10:51:49;10.43;;;6.72;;
27265;SDS011;14766;51.380;13.762;2024-03-22T10:54:26;12.35;;;7.20;;
27265;SDS011;14766;51.380;13.762;2024-03-22T10:56:57;11.55;;;7.65;;
27265;SDS011;14766;51.380;13.762;2024-03-22T10:59:23;10.48;;;7.05;;
27265;SDS011;14766;51.380;13.762;2024-03-22T11:01:49;11.18;;;7.45;;
27265;SDS011;14766;51.380;13.762;2024-03-22T11:04:22;10.60;;;7.20;;
27265;SDS011;14766;51.380;13.762;2024-03-22T11:06:49;11.02;;;6.60;;
27265;SDS011;14766;51.380;13.762;2024-03-22T11:09:21;10.95;;;7.22;;
27265;SDS011;14766;51.380;13.762;2024-03-22T11:11:48;10.77;;;6.78;;
27265;SDS011;14766;51.380;13.762;2024-03-22T11:14:17;9.38;;;6.82;;
27265;SDS011;14766;51.380;13.762;2024-03-22T11:16:44;10.35;;;7.03;;
27265;SDS011;14766;51.380;13.762;2024-03-22T11:19:10;10.23;;;6.72;;
27265;SDS011;14766;51.380;13.762;2024-03-22T11:21:37;11.35;;;7.07;;
27265;SDS011;14766;51.380;13.762;2024-03-22T11:24:04;10.40;;;6.38;;
27265;SDS011;14766;51.380;13.762;2024-03-22T11:26:33;10.23;;;6.90;;
27265;SDS011;14766;51.380;13.762;2024-03-22T11:28:59;9.43;;;5.90;;
27265;SDS011;14766;51.380;13.762;2024-03-22T11:31:29;11.10;;;6.70;;
27265;SDS011;14766;51.380;13.762;2024-03-22T11:33:55;9.88;;;6.95;;
27265;SDS011;14766;51.380;13.762;2024-03-22T11:36:23;10.45;;;7.30;;
27265;SDS011;14766;51.380;13.762;2024-03-22T11:38:49;9.27;;;5.97;;
27265;SDS011;14766;51.380;13.762;2024-03-22T11:41:27;9.70;;;6.35;;
27265;SDS011;14766;51.380;13.762;2024-03-22T11:43:55;9.82;;;6.93;;
27265;SDS011;14766;51.380;13.762;2024-03-22T11:46:24;10.27;;;6.55;;
27265;SDS011;14766;51.380;13.762;2024-03-22T11:48:52;11.43;;;6.10;;
27265;SDS011;14766;51.380;13.762;2024-03-22T11:51:19;10.18;;;6.03;;
27265;SDS011;14766;51.380;13.762;2024-03-22T11:53:52;9.70;;;6.75;;
27265;SDS011;14766;51.380;13.762;2024-03-22T11:56:19;9.77;;;6.70;;
27265;SDS011;14766;51.380;13.762;2024-03-22T11:58:49;9.93;;;6.20;;
27265;SDS011;14766;51.380;13.762;2024-03-22T12:01:24;9.45;;;6.45;;
27265;SDS011;14766;51.380;13.762;2024-03-22T12:03:50;10.48;;;6.93;;
27265;SDS011;14766;51.380;13.762;2024-03-22T12:06:16;9.57;;;6.38;;
27265;SDS011;14766;51.380;13.762;2024-03-22T12:08:42;12.27;;;7.30;;
27265;SDS011;14766;51.380;13.762;2024-03-22T12:11:08;10.43;;;6.68;;
27265;SDS011;14766;51.380;13.762;2024-03-22T12:13:37;10.48;;;6.80;;
27265;SDS011;14766;51.380;13.762;2024-03-22T12:16:04;10.13;;;6.75;;
27265;SDS011;14766;51.380;13.762;2024-03-22T12:18:31;10.23;;;6.95;;
27265;SDS011;14766;51.380;13.762;2024-03-22T12:20:57;11.73;;;7.07;;
27265;SDS011;14766;51.380;13.762;2024-03-22T12:23:23;9.55;;;6.00;;
27265;SDS011;14766;51.380;13.762;2024-03-22T12:25:50;10.00;;;6.75;;
27265;SDS011;14766;51.380;13.762;2024-03-22T12:28:20;9.40;;;6.40;;
27265;SDS011;14766;51.380;13.762;2024-03-22T12:30:47;9.48;;;6.88;;
27265;SDS011;14766;51.380;13.762;2024-03-22T12:33:14;9.85;;;6.47;;
27265;SDS011;14766;51.380;13.762;2024-03-22T12:35:40;9.93;;;6.95;;
27265;SDS011;14766;51.380;13.762;2024-03-22T12:38:07;7.97;;;6.05;;
27265;SDS011;14766;51.380;13.762;2024-03-22T12:40:39;8.75;;;5.93;;
27265;SDS011;14766;51.380;13.762;2024-03-22T12:43:05;9.73;;;6.18;;
27265;SDS011;14766;51.380;13.762;2024-03-22T12:45:34;10.73;;;7.22;;
27265;SDS011;14766;51.380;13.762;2024-03-22T12:48:00;8.45;;;6.25;;
27265;SDS011;14766;51.380;13.762;2024-03-22T12:50:27;9.93;;;6.68;;
27265;SDS011;14766;51.380;13.762;2024-03-22T12:52:54;12.75;;;7.80;;
27265;SDS011;14766;51.380;13.762;2024-03-22T12:55:20;8.73;;;6.20;;
27265;SDS011;14766;51.380;13.762;2024-03-22T12:57:47;12.15;;;6.65;;
27265;SDS011;14766;51.380;13.762;2024-03-22T13:00:13;11.00;;;6.03;;
27265;SDS011;14766;51.380;13.762;2024-03-22T13:02:46;10.15;;;6.80;;
27265;SDS011;14766;51.380;13.762;2024-03-22T13:05:13;10.45;;;6.18;;
27265;SDS011;14766;51.380;13.762;2024-03-22T13:07:41;10.10;;;6.70;;
27265;SDS011;14766;51.380;13.762;2024-03-22T13:10:07;11.23;;;5.53;;
27265;SDS011;14766;51.380;13.762;2024-03-22T13:12:35;8.85;;;6.15;;
27265;SDS011;14766;51.380;13.762;2024-03-22T13:15:03;8.68;;;6.13;;
27265;SDS011;14766;51.380;13.762;2024-03-22T13:17:30;12.50;;;6.30;;
27265;SDS011;14766;51.380;13.762;2024-03-22T13:19:57;8.30;;;5.45;;
27265;SDS011;14766;51.380;13.762;2024-03-22T13:22:23;11.40;;;6.55;;
27265;SDS011;14766;51.380;13.762;2024-03-22T13:24:49;9.75;;;6.35;;
27265;SDS011;14766;51.380;13.762;2024-03-22T13:27:17;10.23;;;6.45;;
27265;SDS011;14766;51.380;13.762;2024-03-22T13:29:47;9.25;;;6.68;;
27265;SDS011;14766;51.380;13.762;2024-03-22T13:32:13;11.77;;;7.15;;
27265;SDS011;14766;51.380;13.762;2024-03-22T13:34:40;9.63;;;6.55;;
27265;SDS011;14766;51.380;13.762;2024-03-22T13:37:06;10.75;;;6.82;;
27265;SDS011;14766;51.380;13.762;2024-03-22T13:39:32;14.73;;;8.23;;
27265;SDS011;14766;51.380;13.762;2024-03-22T13:41:58;12.13;;;8.00;;
27265;SDS011;14766;51.380;13.762;2024-03-22T13:44:24;12.43;;;8.70;;
27265;SDS011;14766;51.380;13.762;2024-03-22T13:46:50;14.20;;;9.20;;
27265;SDS011;14766;51.380;13.762;2024-03-22T13:49:17;14.65;;;8.95;;
27265;SDS011;14766;51.380;13.762;2024-03-22T13:51:46;12.10;;;7.97;;
27265;SDS011;14766;51.380;13.762;2024-03-22T13:54:13;13.82;;;8.20;;
27265;SDS011;14766;51.380;13.762;2024-03-22T13:56:40;13.15;;;8.60;;
27265;SDS011;14766;51.380;13.762;2024-03-22T13:59:06;12.00;;;7.78;;
27265;SDS011;14766;51.380;13.762;2024-03-22T14:01:36;15.70;;;9.82;;
27265;SDS011;14766;51.380;13.762;2024-03-22T14:04:04;13.38;;;9.10;;
27265;SDS011;14766;51.380;13.762;2024-03-22T14:06:31;12.32;;;8.30;;
27265;SDS011;14766;51.380;13.762;2024-03-22T14:08:58;11.68;;;7.97;;
27265;SDS011;14766;51.380;13.762;2024-03-22T14:11:27;13.30;;;8.25;;
27265;SDS011;14766;51.380;13.762;2024-03-22T14:13:53;12.48;;;9.05;;
27265;SDS011;14766;51.380;13.762;2024-03-22T14:16:19;12.13;;;8.80;;
27265;SDS011;14766;51.380;13.762;2024-03-22T14:18:46;13.73;;;9.25;;
27265;SDS011;14766;51.380;13.762;2024-03-22T14:21:13;14.27;;;10.00;;
27265;SDS011;14766;51.380;13.762;2024-03-22T14:23:45;14.38;;;9.70;;
27265;SDS011;14766;51.380;13.762;2024-03-22T14:26:17;17.65;;;10.75;;
27265;SDS011;14766;51.380;13.762;2024-03-22T14:28:44;13.95;;;9.88;;
27265;SDS011;14766;51.380;13.762;2024-03-22T14:31:13;16.52;;;10.52;;
27265;SDS011;14766;51.380;13.762;2024-03-22T14:33:39;15.68;;;10.38;;
27265;SDS011;14766;51.380;13.762;2024-03-22T14:36:06;14.55;;;9.70;;
27265;SDS011;14766;51.380;13.762;2024-03-22T14:38:34;17.85;;;10.75;;
27265;SDS011;14766;51.380;13.762;2024-03-22T14:41:01;19.95;;;9.85;;
27265;SDS011;14766;51.380;13.762;2024-03-22T14:43:28;16.27;;;10.05;;
27265;SDS011;14766;51.380;13.762;2024-03-22T14:45:56;14.85;;;10.27;;
27265;SDS011;14766;51.380;13.762;2024-03-22T14:48:22;15.60;;;10.05;;
27265;SDS011;14766;51.380;13.762;2024-03-22T14:50:49;13.43;;;9.50;;
27265;SDS011;14766;51.380;13.762;2024-03-22T14:53:22;14.68;;;10.02;;
27265;SDS011;14766;51.380;13.762;2024-03-22T14:58:25;13.30;;;8.25;;
27265;SDS011;14766;51.380;13.762;2024-03-22T15:00:54;17.55;;;11.63;;
27265;SDS011;14766;51.380;13.762;2024-03-22T15:03:22;17.40;;;11.23;;
27265;SDS011;14766;51.380;13.762;2024-03-22T15:05:53;19.13;;;11.05;;
27265;SDS011;14766;51.380;13.762;2024-03-22T15:08:20;15.98;;;10.15;;
27265;SDS011;14766;51.380;13.762;2024-03-22T15:10:47;17.63;;;10.52;;
27265;SDS011;14766;51.380;13.762;2024-03-22T15:13:14;14.80;;;10.02;;
27265;SDS011;14766;51.380;13.762;2024-03-22T15:15:41;17.35;;;10.40;;
27265;SDS011;14766;51.380;13.762;2024-03-22T15:18:08;15.88;;;10.20;;
27265;SDS011;14766;51.380;13.762;2024-03-22T15:20:34;16.17;;;11.23;;
27265;SDS011;14766;51.380;13.762;2024-03-22T15:23:01;16.13;;;10.20;;
27265;SDS011;14766;51.380;13.762;2024-03-22T15:25:27;18.17;;;10.90;;
27265;SDS011;14766;51.380;13.762;2024-03-22T15:27:54;16.30;;;10.75;;
27265;SDS011;14766;51.380;13.762;2024-03-22T15:30:20;16.08;;;11.00;;
27265;SDS011;14766;51.380;13.762;2024-03-22T15:32:47;16.88;;;11.25;;
27265;SDS011;14766;51.380;13.762;2024-03-22T15:35:13;16.80;;;11.98;;
27265;SDS011;14766;51.380;13.762;2024-03-22T15:37:39;15.23;;;10.27;;
27265;SDS011;14766;51.380;13.762;2024-03-22T15:40:06;17.88;;;11.10;;
27265;SDS011;14766;51.380;13.762;2024-03-22T15:42:37;16.13;;;10.98;;
27265;SDS011;14766;51.380;13.762;2024-03-22T15:45:03;17.70;;;11.35;;
27265;SDS011;14766;51.380;13.762;2024-03-22T15:47:34;14.48;;;9.77;;
27265;SDS011;14766;51.380;13.762;2024-03-22T15:50:00;13.98;;;9.98;;
27265;SDS011;14766;51.380;13.762;2024-03-22T15:52:27;15.13;;;10.73;;
27265;SDS011;14766;51.380;13.762;2024-03-22T15:54:55;16.70;;;10.73;;
27265;SDS011;14766;51.380;13.762;2024-03-22T15:57:21;17.02;;;10.50;;
27265;SDS011;14766;51.380;13.762;2024-03-22T15:59:47;16.50;;;10.35;;
27265;SDS011;14766;51.380;13.762;2024-03-22T16:02:13;14.90;;;9.48;;
27265;SDS011;14766;51.380;13.762;2024-03-22T16:04:40;13.57;;;9.50;;
27265;SDS011;14766;51.380;13.762;2024-03-22T16:07:07;12.52;;;8.82;;
27265;SDS011;14766;51.380;13.762;2024-03-22T16:09:35;11.70;;;8.40;;
27265;SDS011;14766;51.380;13.762;2024-03-22T16:12:02;13.10;;;9.02;;
27265;SDS011;14766;51.380;13.762;2024-03-22T16:14:32;14.45;;;9.60;;
27265;SDS011;14766;51.380;13.762;2024-03-22T16:16:59;13.85;;;9.52;;
27265;SDS011;14766;51.380;13.762;2024-03-22T16:19:25;13.68;;;9.00;;
27265;SDS011;14766;51.380;13.762;2024-03-22T16:21:51;12.90;;;8.70;;
27265;SDS011;14766;51.380;13.762;2024-03-22T16:24:18;12.55;;;8.93;;
27265;SDS011;14766;51.380;13.762;2024-03-22T16:26:48;14.02;;;8.60;;
27265;SDS011;14766;51.380;13.762;2024-03-22T16:29:14;16.38;;;10.23;;
27265;SDS011;14766;51.380;13.762;2024-03-22T16:31:40;13.15;;;9.43;;
27265;SDS011;14766;51.380;13.762;2024-03-22T16:34:07;17.95;;;11.13;;
27265;SDS011;14766;51.380;13.762;2024-03-22T16:36:33;15.63;;;10.40;;
27265;SDS011;14766;51.380;13.762;2024-03-22T16:39:00;15.80;;;10.98;;
27265;SDS011;14766;51.380;13.762;2024-03-22T16:41:28;17.55;;;11.80;;
27265;SDS011;14766;51.380;13.762;2024-03-22T16:43:54;16.70;;;11.43;;